Terminal Aerodrome Forecast
Issued by NWS

Current Version | Previous Version | Text Only | Print | Product List | Glossary On
Versions: 1 2 3 4 5 6 7 8 9 10 11 12 13 14 15 16 17 18 19 20 21 22 23 24 25
000
FTUS46 KMFR 231700 RRA
TAFOTH
TAF
KOTH 231741Z 2318/2418 20008KT P6SM -SHRA BKN015 BKN025 OVC050
     FM232100 22009KT P6SM -SHRA SCT015 BKN025 OVC040
     FM240300 16005KT P6SM VCSH FEW025 BKN035 BKN050
     FM241000 14004KT 5SM BR SCT003 BKN025 OVC200
     FM241600 VRB03KT P6SM -RA FEW008 SCT050 OVC080=

USA.gov is the U.S. government's official web portal to all federal, state and local government web resources and services.